In Rescue
 
Open Full Screen Window  High Contrast Mode
Wind Gusting 00 knots
13
March 01, 2024 2:01 PM CST
Weather Information
Wind Direction
  210 °
Wind Speed
  13 kt (15 mph)
Wind Gust
  00 kt (0 mph)
Altimeter
29.66 in
Visibility
10 SM
Temperature
14° C
57° F
Dewpoint
-01° C
30° F
Humidity
36%
Sky Condition
Clear
VFR

METAR KBBB 012001Z AUTO 21013KT 10SM CLR 14/M01 A2966 RMK AO2

FAA Disclaimer: The data displayed is for advisory purposes only and is not to be used for flight planning or operations.